sensor_id;sensor_type;location;lat;lon;timestamp;pressure;altitude;pressure_sealevel;temperature;humidity
46583;BME280;32309;48.858;8.252;2022-09-24T00:01:09;100019.22;;;13.46;68.37
46583;BME280;32309;48.858;8.252;2022-09-24T00:03:10;100021.59;;;13.49;68.31
46583;BME280;32309;48.858;8.252;2022-09-24T00:05:10;100020.53;;;13.52;68.34
46583;BME280;32309;48.858;8.252;2022-09-24T00:07:10;100014.28;;;13.54;67.43
46583;BME280;32309;48.858;8.252;2022-09-24T00:09:11;100013.78;;;13.49;68.16
46583;BME280;32309;48.858;8.252;2022-09-24T00:11:12;100010.47;;;13.47;68.07
46583;BME280;32309;48.858;8.252;2022-09-24T00:13:14;100009.75;;;13.45;68.69
46583;BME280;32309;48.858;8.252;2022-09-24T00:15:14;100012.56;;;13.42;68.92
46583;BME280;32309;48.858;8.252;2022-09-24T00:17:14;100021.22;;;13.42;69.16
46583;BME280;32309;48.858;8.252;2022-09-24T00:19:15;100022.88;;;13.43;69.32
46583;BME280;32309;48.858;8.252;2022-09-24T00:23:15;100023.09;;;13.40;69.37
46583;BME280;32309;48.858;8.252;2022-09-24T00:25:15;100017.06;;;13.40;69.43
46583;BME280;32309;48.858;8.252;2022-09-24T00:27:34;100012.91;;;13.37;67.61
46583;BME280;32309;48.858;8.252;2022-09-24T00:29:34;100003.75;;;13.31;68.07
46583;BME280;32309;48.858;8.252;2022-09-24T00:31:35;99997.72;;;13.31;69.30
46583;BME280;32309;48.858;8.252;2022-09-24T00:33:35;99993.44;;;13.30;69.50
46583;BME280;32309;48.858;8.252;2022-09-24T00:35:36;99990.84;;;13.30;69.65
46583;BME280;32309;48.858;8.252;2022-09-24T00:37:36;99991.69;;;13.30;68.61
46583;BME280;32309;48.858;8.252;2022-09-24T00:39:36;99991.81;;;13.29;69.57
46583;BME280;32309;48.858;8.252;2022-09-24T00:41:38;99998.66;;;13.30;69.65
46583;BME280;32309;48.858;8.252;2022-09-24T00:43:40;99997.84;;;13.29;69.85
46583;BME280;32309;48.858;8.252;2022-09-24T00:45:40;100000.56;;;13.28;68.56
46583;BME280;32309;48.858;8.252;2022-09-24T00:47:41;100003.28;;;13.26;69.70
46583;BME280;32309;48.858;8.252;2022-09-24T00:49:42;99993.78;;;13.25;69.70
46583;BME280;32309;48.858;8.252;2022-09-24T00:51:44;99993.06;;;13.23;69.70
46583;BME280;32309;48.858;8.252;2022-09-24T00:53:46;99999.22;;;13.22;68.78
46583;BME280;32309;48.858;8.252;2022-09-24T00:55:48;99996.84;;;13.19;69.86
46583;BME280;32309;48.858;8.252;2022-09-24T00:57:55;99995.16;;;13.18;69.97
46583;BME280;32309;48.858;8.252;2022-09-24T00:59:55;100000.50;;;13.17;70.17
46583;BME280;32309;48.858;8.252;2022-09-24T01:01:56;99987.47;;;13.17;69.54
46583;BME280;32309;48.858;8.252;2022-09-24T01:03:58;99981.78;;;13.11;70.35
46583;BME280;32309;48.858;8.252;2022-09-24T01:05:59;99983.56;;;13.11;70.42
46583;BME280;32309;48.858;8.252;2022-09-24T01:08:00;99979.28;;;13.10;70.22
46583;BME280;32309;48.858;8.252;2022-09-24T01:10:00;99972.53;;;13.07;70.21
46583;BME280;32309;48.858;8.252;2022-09-24T01:18:35;99971.09;;;13.03;70.36
46583;BME280;32309;48.858;8.252;2022-09-24T01:21:22;99959.03;;;13.02;70.79
46583;BME280;32309;48.858;8.252;2022-09-24T01:25:06;99958.53;;;12.97;70.72
46583;BME280;32309;48.858;8.252;2022-09-24T01:27:19;99959.50;;;12.96;70.85
46583;BME280;32309;48.858;8.252;2022-09-24T01:29:22;99954.50;;;12.93;70.19
46583;BME280;32309;48.858;8.252;2022-09-24T01:31:24;99952.13;;;12.90;70.88
46583;BME280;32309;48.858;8.252;2022-09-24T01:33:25;99947.97;;;12.87;70.83
46583;BME280;32309;48.858;8.252;2022-09-24T01:35:27;99955.78;;;12.87;71.35
46583;BME280;32309;48.858;8.252;2022-09-24T01:37:31;99946.53;;;12.83;71.32
46583;BME280;32309;48.858;8.252;2022-09-24T01:39:32;99948.22;;;12.84;71.86
46583;BME280;32309;48.858;8.252;2022-09-24T01:41:35;99951.75;;;12.83;71.59
46583;BME280;32309;48.858;8.252;2022-09-24T01:43:37;99949.03;;;12.85;71.68
46583;BME280;32309;48.858;8.252;2022-09-24T01:45:38;99937.69;;;12.86;71.94
46583;BME280;32309;48.858;8.252;2022-09-24T01:47:39;99938.50;;;12.86;71.76
46583;BME280;32309;48.858;8.252;2022-09-24T01:49:40;99939.44;;;12.85;71.60
46583;BME280;32309;48.858;8.252;2022-09-24T01:51:50;99936.97;;;12.84;71.43
46583;BME280;32309;48.858;8.252;2022-09-24T01:53:53;99934.34;;;12.84;71.68
46583;BME280;32309;48.858;8.252;2022-09-24T01:55:59;99935.41;;;12.81;71.67
46583;BME280;32309;48.858;8.252;2022-09-24T01:58:03;99926.78;;;12.80;71.33
46583;BME280;32309;48.858;8.252;2022-09-24T02:00:05;99927.97;;;12.76;71.82
46583;BME280;32309;48.858;8.252;2022-09-24T02:02:11;99935.03;;;12.74;71.86
46583;BME280;32309;48.858;8.252;2022-09-24T02:04:14;99935.13;;;12.73;71.89
46583;BME280;32309;48.858;8.252;2022-09-24T02:06:17;99949.06;;;12.72;72.03
46583;BME280;32309;48.858;8.252;2022-09-24T02:08:23;99947.22;;;12.74;72.13
46583;BME280;32309;48.858;8.252;2022-09-24T02:10:23;99945.31;;;12.76;71.84
46583;BME280;32309;48.858;8.252;2022-09-24T02:12:29;99933.97;;;12.77;70.54
46583;BME280;32309;48.858;8.252;2022-09-24T02:14:31;99931.81;;;12.71;70.76
46583;BME280;32309;48.858;8.252;2022-09-24T02:16:36;99928.81;;;12.64;71.62
46583;BME280;32309;48.858;8.252;2022-09-24T02:18:39;99928.22;;;12.60;72.21
46583;BME280;32309;48.858;8.252;2022-09-24T02:20:40;99938.53;;;12.62;72.40
46583;BME280;32309;48.858;8.252;2022-09-24T02:22:42;99941.13;;;12.62;72.16
46583;BME280;32309;48.858;8.252;2022-09-24T02:24:52;99935.81;;;12.63;72.09
46583;BME280;32309;48.858;8.252;2022-09-24T02:26:54;99929.56;;;12.66;71.24
46583;BME280;32309;48.858;8.252;2022-09-24T02:28:54;99923.72;;;12.62;72.00
46583;BME280;32309;48.858;8.252;2022-09-24T02:33:13;99936.97;;;12.59;73.05
46583;BME280;32309;48.858;8.252;2022-09-24T02:35:32;99929.06;;;12.61;73.07
46583;BME280;32309;48.858;8.252;2022-09-24T02:37:33;99929.78;;;12.63;72.76
46583;BME280;32309;48.858;8.252;2022-09-24T02:39:34;99929.66;;;12.64;72.65
46583;BME280;32309;48.858;8.252;2022-09-24T02:41:35;99936.63;;;12.64;72.82
46583;BME280;32309;48.858;8.252;2022-09-24T02:43:35;99935.81;;;12.63;72.74
46583;BME280;32309;48.858;8.252;2022-09-24T02:45:35;99938.16;;;12.67;73.21
46583;BME280;32309;48.858;8.252;2022-09-24T02:47:36;99932.03;;;12.68;72.27
46583;BME280;32309;48.858;8.252;2022-09-24T02:49:37;99931.09;;;12.69;73.03
46583;BME280;32309;48.858;8.252;2022-09-24T02:51:37;99919.84;;;12.68;73.14
46583;BME280;32309;48.858;8.252;2022-09-24T02:53:38;99923.31;;;12.69;73.29
46583;BME280;32309;48.858;8.252;2022-09-24T02:55:38;99930.25;;;12.68;72.73
46583;BME280;32309;48.858;8.252;2022-09-24T02:57:38;99923.41;;;12.67;73.18
46583;BME280;32309;48.858;8.252;2022-09-24T02:59:38;99926.22;;;12.64;72.96
46583;BME280;32309;48.858;8.252;2022-09-24T03:01:39;99925.63;;;12.60;73.71
46583;BME280;32309;48.858;8.252;2022-09-24T03:03:39;99931.03;;;12.57;73.12
46583;BME280;32309;48.858;8.252;2022-09-24T03:05:39;99923.34;;;12.56;73.45
46583;BME280;32309;48.858;8.252;2022-09-24T03:07:39;99925.13;;;12.55;73.88
46583;BME280;32309;48.858;8.252;2022-09-24T03:09:39;99919.06;;;12.55;74.09
46583;BME280;32309;48.858;8.252;2022-09-24T03:11:40;99916.59;;;12.53;73.35
46583;BME280;32309;48.858;8.252;2022-09-24T03:13:40;99914.00;;;12.53;74.46
46583;BME280;32309;48.858;8.252;2022-09-24T03:15:40;99919.31;;;12.52;74.24
46583;BME280;32309;48.858;8.252;2022-09-24T03:17:41;99918.69;;;12.48;74.56
46583;BME280;32309;48.858;8.252;2022-09-24T03:19:41;99917.03;;;12.47;74.26
46583;BME280;32309;48.858;8.252;2022-09-24T03:21:41;99917.88;;;12.47;74.35
46583;BME280;32309;48.858;8.252;2022-09-24T03:23:41;99915.38;;;12.46;74.63
46583;BME280;32309;48.858;8.252;2022-09-24T03:25:41;99915.28;;;12.47;74.50
46583;BME280;32309;48.858;8.252;2022-09-24T03:27:41;99917.66;;;12.51;73.64
46583;BME280;32309;48.858;8.252;2022-09-24T03:29:42;99922.84;;;12.51;74.25
46583;BME280;32309;48.858;8.252;2022-09-24T03:32:00;99922.03;;;12.50;74.07
46583;BME280;32309;48.858;8.252;2022-09-24T03:34:01;99928.88;;;12.51;74.51
46583;BME280;32309;48.858;8.252;2022-09-24T03:36:02;99921.09;;;12.51;74.26
46583;BME280;32309;48.858;8.252;2022-09-24T03:38:03;99922.72;;;12.52;74.14
46583;BME280;32309;48.858;8.252;2022-09-24T03:40:03;99927.00;;;12.53;74.35
46583;BME280;32309;48.858;8.252;2022-09-24T03:42:05;99924.41;;;12.53;74.42
46583;BME280;32309;48.858;8.252;2022-09-24T03:44:05;99922.53;;;12.55;74.09
46583;BME280;32309;48.858;8.252;2022-09-24T03:46:06;99919.94;;;12.55;74.10
46583;BME280;32309;48.858;8.252;2022-09-24T03:48:07;99914.63;;;12.57;74.58
46583;BME280;32309;48.858;8.252;2022-09-24T03:50:07;99906.81;;;12.57;74.01
46583;BME280;32309;48.858;8.252;2022-09-24T03:52:10;99912.84;;;12.57;73.38
46583;BME280;32309;48.858;8.252;2022-09-24T03:54:10;99904.22;;;12.57;73.80
46583;BME280;32309;48.858;8.252;2022-09-24T03:56:11;99904.34;;;12.55;74.00
46583;BME280;32309;48.858;8.252;2022-09-24T03:58:12;99907.13;;;12.52;73.80
46583;BME280;32309;48.858;8.252;2022-09-24T04:00:12;99900.28;;;12.51;74.24
46583;BME280;32309;48.858;8.252;2022-09-24T04:02:12;99906.44;;;12.50;73.99
46583;BME280;32309;48.858;8.252;2022-09-24T04:04:13;99908.19;;;12.49;74.41
46583;BME280;32309;48.858;8.252;2022-09-24T04:06:15;99909.03;;;12.50;74.25
46583;BME280;32309;48.858;8.252;2022-09-24T04:08:19;99909.03;;;12.50;74.31
46583;BME280;32309;48.858;8.252;2022-09-24T04:10:19;99906.53;;;12.48;74.08
46583;BME280;32309;48.858;8.252;2022-09-24T04:12:19;99897.91;;;12.48;74.65
46583;BME280;32309;48.858;8.252;2022-09-24T04:14:19;99898.13;;;12.45;74.30
46583;BME280;32309;48.858;8.252;2022-09-24T04:16:20;99887.97;;;12.42;73.95
46583;BME280;32309;48.858;8.252;2022-09-24T04:18:20;99889.81;;;12.40;74.06
46583;BME280;32309;48.858;8.252;2022-09-24T04:20:24;99891.09;;;12.34;74.81
46583;BME280;32309;48.858;8.252;2022-09-24T04:22:25;99890.25;;;12.34;74.88
46583;BME280;32309;48.858;8.252;2022-09-24T04:24:26;99887.66;;;12.34;74.59
46583;BME280;32309;48.858;8.252;2022-09-24T04:26:26;99892.84;;;12.34;75.02
46583;BME280;32309;48.858;8.252;2022-09-24T04:28:27;99886.84;;;12.33;75.02
46583;BME280;32309;48.858;8.252;2022-09-24T04:30:29;99890.38;;;12.32;75.21
46583;BME280;32309;48.858;8.252;2022-09-24T04:32:29;99891.09;;;12.34;74.63
46583;BME280;32309;48.858;8.252;2022-09-24T04:34:29;99879.16;;;12.31;74.86
46583;BME280;32309;48.858;8.252;2022-09-24T04:36:30;99889.53;;;12.31;74.55
46583;BME280;32309;48.858;8.252;2022-09-24T04:38:30;99893.19;;;12.29;75.12
46583;BME280;32309;48.858;8.252;2022-09-24T04:40:30;99894.94;;;12.28;74.87
46583;BME280;32309;48.858;8.252;2022-09-24T04:42:30;99895.91;;;12.27;75.08
46583;BME280;32309;48.858;8.252;2022-09-24T04:44:31;99900.25;;;12.27;75.37
46583;BME280;32309;48.858;8.252;2022-09-24T04:46:31;99895.06;;;12.27;75.04
46583;BME280;32309;48.858;8.252;2022-09-24T04:48:33;99902.03;;;12.26;73.40
46583;BME280;32309;48.858;8.252;2022-09-24T04:50:37;99902.97;;;12.25;75.56
46583;BME280;32309;48.858;8.252;2022-09-24T04:52:38;99899.53;;;12.25;74.95
46583;BME280;32309;48.858;8.252;2022-09-24T04:54:38;99892.69;;;12.24;75.62
46583;BME280;32309;48.858;8.252;2022-09-24T04:56:38;99892.56;;;12.25;74.28
46583;BME280;32309;48.858;8.252;2022-09-24T04:58:38;99897.75;;;12.25;74.72
46583;BME280;32309;48.858;8.252;2022-09-24T05:00:39;99895.28;;;12.24;75.28
46583;BME280;32309;48.858;8.252;2022-09-24T05:02:40;99895.28;;;12.24;75.08
46583;BME280;32309;48.858;8.252;2022-09-24T05:04:40;99886.75;;;12.22;73.64
46583;BME280;32309;48.858;8.252;2022-09-24T05:06:40;99897.38;;;12.19;74.82
46583;BME280;32309;48.858;8.252;2022-09-24T05:08:40;99894.03;;;12.17;75.92
46583;BME280;32309;48.858;8.252;2022-09-24T05:10:41;99892.41;;;12.15;74.93
46583;BME280;32309;48.858;8.252;2022-09-24T05:12:41;99890.63;;;12.16;75.43
46583;BME280;32309;48.858;8.252;2022-09-24T05:14:41;99892.28;;;12.17;75.44
46583;BME280;32309;48.858;8.252;2022-09-24T05:16:41;99896.63;;;12.17;75.90
46583;BME280;32309;48.858;8.252;2022-09-24T05:18:41;99896.84;;;12.13;75.88
46583;BME280;32309;48.858;8.252;2022-09-24T05:20:42;99889.06;;;12.13;75.71
46583;BME280;32309;48.858;8.252;2022-09-24T05:22:43;99893.34;;;12.14;73.44
46583;BME280;32309;48.858;8.252;2022-09-24T05:24:44;99895.06;;;12.14;75.10
46583;BME280;32309;48.858;8.252;2022-09-24T05:26:44;99902.97;;;12.12;75.32
46583;BME280;32309;48.858;8.252;2022-09-24T05:29:02;99906.22;;;12.16;75.58
46583;BME280;32309;48.858;8.252;2022-09-24T05:31:03;99901.94;;;12.15;75.27
46583;BME280;32309;48.858;8.252;2022-09-24T05:33:03;99906.31;;;12.14;75.06
46583;BME280;32309;48.858;8.252;2022-09-24T05:35:03;99908.06;;;12.14;75.19
46583;BME280;32309;48.858;8.252;2022-09-24T05:37:06;99907.25;;;12.13;75.01
46583;BME280;32309;48.858;8.252;2022-09-24T05:39:07;99901.13;;;12.14;75.43
46583;BME280;32309;48.858;8.252;2022-09-24T05:41:07;99902.88;;;12.14;75.49
46583;BME280;32309;48.858;8.252;2022-09-24T05:43:07;99907.25;;;12.13;75.77
46583;BME280;32309;48.858;8.252;2022-09-24T05:45:07;99902.06;;;12.13;75.53
46583;BME280;32309;48.858;8.252;2022-09-24T05:47:08;99908.00;;;12.15;75.67
46583;BME280;32309;48.858;8.252;2022-09-24T05:49:08;99913.19;;;12.15;75.82
46583;BME280;32309;48.858;8.252;2022-09-24T05:51:08;99910.47;;;12.17;75.87
46583;BME280;32309;48.858;8.252;2022-09-24T05:53:09;99905.28;;;12.17;75.73
46583;BME280;32309;48.858;8.252;2022-09-24T05:55:09;99912.97;;;12.19;75.47
46583;BME280;32309;48.858;8.252;2022-09-24T05:57:09;99909.53;;;12.18;75.89
46583;BME280;32309;48.858;8.252;2022-09-24T05:59:10;99912.22;;;12.17;75.80
46583;BME280;32309;48.858;8.252;2022-09-24T06:01:10;99909.63;;;12.17;76.10
46583;BME280;32309;48.858;8.252;2022-09-24T06:03:14;99924.16;;;12.19;76.14
46583;BME280;32309;48.858;8.252;2022-09-24T06:05:14;99918.16;;;12.19;76.02
46583;BME280;32309;48.858;8.252;2022-09-24T06:07:14;99915.56;;;12.19;74.53
46583;BME280;32309;48.858;8.252;2022-09-24T06:09:14;99919.94;;;12.18;75.69
46583;BME280;32309;48.858;8.252;2022-09-24T06:11:14;99917.34;;;12.18;75.72
46583;BME280;32309;48.858;8.252;2022-09-24T06:13:15;99926.75;;;12.19;75.94
46583;BME280;32309;48.858;8.252;2022-09-24T06:15:16;99922.19;;;12.23;75.15
46583;BME280;32309;48.858;8.252;2022-09-24T06:17:16;99926.34;;;12.25;74.83
46583;BME280;32309;48.858;8.252;2022-09-24T06:19:16;99914.09;;;12.27;75.13
46583;BME280;32309;48.858;8.252;2022-09-24T06:21:17;99908.78;;;12.29;75.47
46583;BME280;32309;48.858;8.252;2022-09-24T06:23:17;99916.47;;;12.30;73.02
46583;BME280;32309;48.858;8.252;2022-09-24T06:25:17;99918.03;;;12.33;75.63
46583;BME280;32309;48.858;8.252;2022-09-24T06:27:17;99918.72;;;12.35;76.04
46583;BME280;32309;48.858;8.252;2022-09-24T06:29:17;99924.66;;;12.37;75.85
46583;BME280;32309;48.858;8.252;2022-09-24T06:31:18;99933.28;;;12.38;76.12
46583;BME280;32309;48.858;8.252;2022-09-24T06:33:19;99927.03;;;12.40;76.38
46583;BME280;32309;48.858;8.252;2022-09-24T06:35:19;99929.31;;;12.45;76.08
46583;BME280;32309;48.858;8.252;2022-09-24T06:37:20;99926.72;;;12.45;74.31
46583;BME280;32309;48.858;8.252;2022-09-24T06:39:21;99922.44;;;12.44;75.12
46583;BME280;32309;48.858;8.252;2022-09-24T06:41:21;99928.97;;;12.49;75.82
46583;BME280;32309;48.858;8.252;2022-09-24T06:43:22;99925.25;;;12.54;75.77
46583;BME280;32309;48.858;8.252;2022-09-24T06:45:22;99919.69;;;12.58;75.56
46583;BME280;32309;48.858;8.252;2022-09-24T06:47:22;99916.28;;;12.58;74.54
46583;BME280;32309;48.858;8.252;2022-09-24T06:49:23;99919.59;;;12.60;76.17
46583;BME280;32309;48.858;8.252;2022-09-24T06:51:23;99921.97;;;12.63;76.09
46583;BME280;32309;48.858;8.252;2022-09-24T06:53:23;99926.09;;;12.65;76.23
46583;BME280;32309;48.858;8.252;2022-09-24T06:55:23;99930.38;;;12.67;74.80
46583;BME280;32309;48.858;8.252;2022-09-24T06:57:24;99931.81;;;12.71;76.00
46583;BME280;32309;48.858;8.252;2022-09-24T06:59:24;99932.66;;;12.71;75.93
46583;BME280;32309;48.858;8.252;2022-09-24T07:01:24;99936.06;;;12.72;76.02
46583;BME280;32309;48.858;8.252;2022-09-24T07:03:25;99931.50;;;12.75;75.48
46583;BME280;32309;48.858;8.252;2022-09-24T07:05:26;99941.53;;;12.80;76.51
46583;BME280;32309;48.858;8.252;2022-09-24T07:07:26;99932.69;;;12.82;76.50
46583;BME280;32309;48.858;8.252;2022-09-24T07:09:29;99933.19;;;12.88;76.22
46583;BME280;32309;48.858;8.252;2022-09-24T07:11:29;99933.00;;;12.91;75.22
46583;BME280;32309;48.858;8.252;2022-09-24T07:13:30;99939.50;;;12.96;75.89
46583;BME280;32309;48.858;8.252;2022-09-24T07:15:30;99930.78;;;12.97;75.50
46583;BME280;32309;48.858;8.252;2022-09-24T07:17:30;99933.25;;;12.99;76.31
46583;BME280;32309;48.858;8.252;2022-09-24T07:19:30;99941.75;;;13.01;75.32
46583;BME280;32309;48.858;8.252;2022-09-24T07:21:30;99945.91;;;13.04;76.27
46583;BME280;32309;48.858;8.252;2022-09-24T07:23:30;99951.97;;;13.04;76.38
46583;BME280;32309;48.858;8.252;2022-09-24T07:25:31;99947.47;;;13.06;76.47
46583;BME280;32309;48.858;8.252;2022-09-24T07:27:31;99949.00;;;13.09;75.30
46583;BME280;32309;48.858;8.252;2022-09-24T07:29:32;99945.22;;;13.13;76.50
46583;BME280;32309;48.858;8.252;2022-09-24T07:31:32;99948.69;;;13.13;75.60
46583;BME280;32309;48.858;8.252;2022-09-24T07:33:32;99957.19;;;13.15;75.28
46583;BME280;32309;48.858;8.252;2022-09-24T07:35:33;99960.63;;;13.16;74.69
46583;BME280;32309;48.858;8.252;2022-09-24T07:37:35;99948.56;;;13.15;75.51
46583;BME280;32309;48.858;8.252;2022-09-24T07:39:35;99956.50;;;13.13;74.79
46583;BME280;32309;48.858;8.252;2022-09-24T07:41:35;99959.91;;;13.14;75.48
46583;BME280;32309;48.858;8.252;2022-09-24T07:43:36;99962.41;;;13.15;73.93
46583;BME280;32309;48.858;8.252;2022-09-24T07:45:37;99962.41;;;13.15;73.63
46583;BME280;32309;48.858;8.252;2022-09-24T07:47:37;99966.78;;;13.15;74.25
46583;BME280;32309;48.858;8.252;2022-09-24T07:49:38;99960.63;;;13.16;75.45
46583;BME280;32309;48.858;8.252;2022-09-24T07:51:38;99964.78;;;13.19;73.44
46583;BME280;32309;48.858;8.252;2022-09-24T07:53:38;99952.59;;;13.19;75.80
46583;BME280;32309;48.858;8.252;2022-09-24T07:55:38;99953.44;;;13.20;76.09
46583;BME280;32309;48.858;8.252;2022-09-24T07:57:39;99953.34;;;13.21;76.03
46583;BME280;32309;48.858;8.252;2022-09-24T07:59:44;99956.50;;;13.25;74.83
46583;BME280;32309;48.858;8.252;2022-09-24T08:01:47;99953.81;;;13.26;76.76
46583;BME280;32309;48.858;8.252;2022-09-24T08:03:51;99945.78;;;13.29;77.10
46583;BME280;32309;48.858;8.252;2022-09-24T08:05:51;99949.00;;;13.33;77.70
46583;BME280;32309;48.858;8.252;2022-09-24T08:07:56;99958.25;;;13.37;73.60
46583;BME280;32309;48.858;8.252;2022-09-24T08:09:56;99948.53;;;13.39;74.01
46583;BME280;32309;48.858;8.252;2022-09-24T08:11:57;99962.28;;;13.41;73.80
46583;BME280;32309;48.858;8.252;2022-09-24T08:13:57;99957.19;;;13.40;73.58
46583;BME280;32309;48.858;8.252;2022-09-24T08:15:57;99963.34;;;13.39;74.95
46583;BME280;32309;48.858;8.252;2022-09-24T08:18:01;99962.63;;;13.37;74.99
46583;BME280;32309;48.858;8.252;2022-09-24T08:20:02;99959.94;;;13.38;74.83
46583;BME280;32309;48.858;8.252;2022-09-24T08:22:02;99965.00;;;13.40;75.62
46583;BME280;32309;48.858;8.252;2022-09-24T08:24:04;99963.09;;;13.42;76.49
46583;BME280;32309;48.858;8.252;2022-09-24T08:26:04;99973.31;;;13.45;77.73
46583;BME280;32309;48.858;8.252;2022-09-24T08:28:05;99980.06;;;13.47;76.72
46583;BME280;32309;48.858;8.252;2022-09-24T08:30:05;99973.88;;;13.48;77.83
46583;BME280;32309;48.858;8.252;2022-09-24T08:32:06;99971.78;;;13.54;77.69
46583;BME280;32309;48.858;8.252;2022-09-24T08:34:06;99962.91;;;13.56;75.63
46583;BME280;32309;48.858;8.252;2022-09-24T08:36:07;99955.94;;;13.57;75.72
46583;BME280;32309;48.858;8.252;2022-09-24T08:38:08;99957.56;;;13.58;74.49
46583;BME280;32309;48.858;8.252;2022-09-24T08:40:19;99953.91;;;13.60;76.27
46583;BME280;32309;48.858;8.252;2022-09-24T08:42:38;99967.31;;;13.67;77.24
46583;BME280;32309;48.858;8.252;2022-09-24T08:44:44;99973.72;;;13.74;77.56
46583;BME280;32309;48.858;8.252;2022-09-24T08:47:06;99973.34;;;13.79;77.18
46583;BME280;32309;48.858;8.252;2022-09-24T08:49:23;99973.97;;;13.82;76.84
46583;BME280;32309;48.858;8.252;2022-09-24T08:51:24;99972.91;;;13.85;76.61
46583;BME280;32309;48.858;8.252;2022-09-24T08:53:27;99963.09;;;13.89;76.52
46583;BME280;32309;48.858;8.252;2022-09-24T08:55:37;99974.00;;;13.94;76.78
46583;BME280;32309;48.858;8.252;2022-09-24T08:58:04;99964.88;;;14.00;76.13
46583;BME280;32309;48.858;8.252;2022-09-24T08:59:59;99964.28;;;14.07;76.05
46583;BME280;32309;48.858;8.252;2022-09-24T09:04:29;99966.91;;;14.19;75.25
46583;BME280;32309;48.858;8.252;2022-09-24T09:06:48;99969.94;;;14.24;74.22
46583;BME280;32309;48.858;8.252;2022-09-24T09:10:53;99967.81;;;14.29;76.06
46583;BME280;32309;48.858;8.252;2022-09-24T09:13:09;99967.22;;;14.37;75.39
46583;BME280;32309;48.858;8.252;2022-09-24T09:15:19;99973.03;;;14.40;75.78
46583;BME280;32309;48.858;8.252;2022-09-24T09:17:28;99975.38;;;14.43;75.19
46583;BME280;32309;48.858;8.252;2022-09-24T09:19:33;99971.00;;;14.44;74.30
46583;BME280;32309;48.858;8.252;2022-09-24T09:21:40;99973.63;;;14.44;75.82
46583;BME280;32309;48.858;8.252;2022-09-24T09:23:47;99978.47;;;14.48;75.11
46583;BME280;32309;48.858;8.252;2022-09-24T09:25:53;99974.09;;;14.49;74.74
46583;BME280;32309;48.858;8.252;2022-09-24T09:28:11;99979.06;;;14.52;75.67
46583;BME280;32309;48.858;8.252;2022-09-24T09:30:16;99973.59;;;14.55;74.26
46583;BME280;32309;48.858;8.252;2022-09-24T09:32:23;99979.75;;;14.54;74.37
46583;BME280;32309;48.858;8.252;2022-09-24T09:36:45;99976.91;;;14.57;73.91
46583;BME280;32309;48.858;8.252;2022-09-24T09:41:33;99975.72;;;14.61;74.11
46583;BME280;32309;48.858;8.252;2022-09-24T09:43:35;99971.31;;;14.62;74.18
46583;BME280;32309;48.858;8.252;2022-09-24T09:45:54;99970.50;;;14.61;74.49
46583;BME280;32309;48.858;8.252;2022-09-24T09:47:56;99975.59;;;14.63;74.56
46583;BME280;32309;48.858;8.252;2022-09-24T09:49:56;99973.25;;;14.60;73.92
46583;BME280;32309;48.858;8.252;2022-09-24T09:52:01;99974.19;;;14.59;75.29
46583;BME280;32309;48.858;8.252;2022-09-24T09:54:03;99973.13;;;14.61;75.61
46583;BME280;32309;48.858;8.252;2022-09-24T09:56:04;99974.06;;;14.60;75.48
46583;BME280;32309;48.858;8.252;2022-09-24T09:58:14;99968.72;;;14.62;76.25
46583;BME280;32309;48.858;8.252;2022-09-24T10:00:23;99967.91;;;14.61;74.91
46583;BME280;32309;48.858;8.252;2022-09-24T10:02:34;99973.22;;;14.71;76.20
46583;BME280;32309;48.858;8.252;2022-09-24T10:07:16;99970.81;;;14.91;76.12
46583;BME280;32309;48.858;8.252;2022-09-24T10:09:32;99967.22;;;15.03;77.17
46583;BME280;32309;48.858;8.252;2022-09-24T10:11:33;99971.56;;;15.14;77.67
46583;BME280;32309;48.858;8.252;2022-09-24T10:13:34;99974.63;;;15.19;74.54
46583;BME280;32309;48.858;8.252;2022-09-24T10:15:38;99973.91;;;15.17;76.64
46583;BME280;32309;48.858;8.252;2022-09-24T10:17:47;99975.19;;;15.23;77.13
46583;BME280;32309;48.858;8.252;2022-09-24T10:19:49;99975.50;;;15.29;78.80
46583;BME280;32309;48.858;8.252;2022-09-24T10:21:49;99976.09;;;15.33;79.06
46583;BME280;32309;48.858;8.252;2022-09-24T10:23:50;99965.59;;;15.44;79.73
46583;BME280;32309;48.858;8.252;2022-09-24T10:25:54;99958.91;;;15.52;77.76
46583;BME280;32309;48.858;8.252;2022-09-24T10:28:00;99961.31;;;15.64;78.38
46583;BME280;32309;48.858;8.252;2022-09-24T10:30:23;99959.03;;;15.71;74.50
46583;BME280;32309;48.858;8.252;2022-09-24T10:32:32;99958.75;;;15.74;77.11
46583;BME280;32309;48.858;8.252;2022-09-24T10:34:32;99963.25;;;15.84;77.13
46583;BME280;32309;48.858;8.252;2022-09-24T10:36:33;99953.34;;;15.87;75.55
46583;BME280;32309;48.858;8.252;2022-09-24T10:38:33;99957.94;;;15.95;77.60
46583;BME280;32309;48.858;8.252;2022-09-24T10:40:39;99955.63;;;16.02;77.47
46583;BME280;32309;48.858;8.252;2022-09-24T10:42:40;99953.06;;;16.11;77.81
46583;BME280;32309;48.858;8.252;2022-09-24T10:44:40;99948.94;;;16.19;78.48
46583;BME280;32309;48.858;8.252;2022-09-24T10:48:44;99943.47;;;16.32;77.69
46583;BME280;32309;48.858;8.252;2022-09-24T10:51:00;99940.44;;;16.36;77.92
46583;BME280;32309;48.858;8.252;2022-09-24T10:53:05;99941.59;;;16.43;78.50
46583;BME280;32309;48.858;8.252;2022-09-24T10:55:13;99947.94;;;16.51;77.96
46583;BME280;32309;48.858;8.252;2022-09-24T11:03:52;99941.22;;;16.77;75.29
46583;BME280;32309;48.858;8.252;2022-09-24T11:06:00;99935.44;;;16.84;76.93
46583;BME280;32309;48.858;8.252;2022-09-24T11:14:55;99932.16;;;17.11;75.43
46583;BME280;32309;48.858;8.252;2022-09-24T11:19:35;99926.38;;;17.07;75.29
46583;BME280;32309;48.858;8.252;2022-09-24T11:21:55;99924.84;;;17.05;75.51
46583;BME280;32309;48.858;8.252;2022-09-24T11:26:19;99920.19;;;16.99;75.83
46583;BME280;32309;48.858;8.252;2022-09-24T11:30:53;99923.63;;;16.99;76.61
46583;BME280;32309;48.858;8.252;2022-09-24T11:33:13;99917.28;;;17.02;76.08
46583;BME280;32309;48.858;8.252;2022-09-24T11:35:29;99915.38;;;17.04;76.24
46583;BME280;32309;48.858;8.252;2022-09-24T11:37:38;99910.81;;;17.06;75.27